SGH weather

Springfield-Beckley Municipal Airport
Springfield, Ohio, United States

Public forecast

Using degrees Fahrenheit for public forecast. Weather courtesy of forecast.io.

Current aviation weather report (METAR) for Springfield-Beckley Municipal Airport

Retrieved 2020/01/24 19:12 UTC (19 minutes ago):

KSGH 241912Z AUTO 00000KT 4SM -RA BR OVC003 06/06 A2982 RMK AO2 PNO

Closest aviation forecast (TAF) to Springfield-Beckley Municipal Airport

Closest forecast is Wright-Patterson Air Force Base, 9.6 nm (17.8 km) W. Retrieved 2020/01/24 19:41 UTC (0 seconds ago):

TAF KFFO 241910Z 2419/2601 12012KT 8000 -RA OVC006 620606 QNH2980INS BECMG 2420/2422 18006KT 8000 -RA OVC010 620408 QNH2982INS BECMG 2502/2503 19006KT 8000 -RA OVC007 620208 QNH2983INS BECMG 2513/2514 23012G18KT 9999 NSW SCT008 OVC015 620208 QNH2983INS BECMG 2520/2521 22009KT 9000 -RA OVC015 620158 510013 QNH2983INS BECMG 2523/2524 24012KT 9000 -SN OVC015 620158 510013 QNH2989INS TX07/2420Z TN02/2519Z